Time;durP1;ratioP1;P1;durP2;ratioP2;P2;SDS_P1;SDS_P2;PMS_P1;PMS_P2;Temp;Humidity;BMP_temperature;BMP_pressure;BME280_temperature;BME280_humidity;BME280_pressure;Samples;Min_cycle;Max_cycle;Signal;HPM_P1;HPM_P2
2022/02/01 00:00:56;;;;;;;5.75;1.42;;;;;;;6.92;56.80;102028.84;4945386;28;123582;-77
2022/02/01 00:03:28;;;;;;;8.60;1.45;;;;;;;6.87;56.89;102030.66;4966391;28;122732;-77
2022/02/01 00:08:56;;;;;;;5.93;1.23;;;;;;;6.81;57.17;102037.72;4966235;28;118044;-76
2022/02/01 00:11:39;;;;;;;9.35;1.95;;;;;;;6.78;56.90;102035.16;4949133;28;122494;-77
2022/02/01 00:17:09;;;;;;;13.23;1.60;;;;;;;6.75;57.40;102037.78;4966648;28;119647;-77
2022/02/01 00:36:17;;;;;;;11.10;1.50;;;;;;;6.68;57.37;102067.69;4965898;28;124686;-77
2022/02/01 00:38:59;;;;;;;8.43;1.70;;;;;;;6.69;57.56;102058.91;4966364;28;120395;-77
2022/02/01 00:41:31;;;;;;;9.45;1.40;;;;;;;6.70;57.62;102059.78;4982496;28;118684;-77
2022/02/01 00:43:59;;;;;;;9.00;1.38;;;;;;;6.71;57.67;102059.78;4965698;28;123316;-77
2022/02/01 00:46:26;;;;;;;9.05;1.55;;;;;;;6.70;57.73;102055.38;4948803;28;124774;-76
2022/02/01 00:48:54;;;;;;;9.82;1.55;;;;;;;6.69;57.61;102058.91;4965757;28;118589;-77
2022/02/01 00:51:21;;;;;;;13.43;2.10;;;;;;;6.70;57.65;102068.53;4965508;28;118860;-77
2022/02/01 00:53:48;;;;;;;8.80;1.90;;;;;;;6.70;57.56;102058.03;4982117;28;123793;-77
2022/02/01 00:56:16;;;;;;;9.88;1.70;;;;;;;6.69;57.89;102053.66;4965916;28;122796;-77
2022/02/01 00:58:45;;;;;;;11.32;1.98;;;;;;;6.70;57.80;102060.66;4982255;28;118414;-77
2022/02/01 01:01:13;;;;;;;12.68;2.08;;;;;;;6.72;57.71;102044.84;4965293;28;119068;-77
2022/02/01 01:03:41;;;;;;;9.75;1.27;;;;;;;6.73;57.79;102055.38;4981462;28;122913;-77
2022/02/01 01:06:08;;;;;;;10.63;1.92;;;;;;;6.74;57.80;102046.59;4966414;28;124320;-77
2022/02/01 01:08:35;;;;;;;11.57;1.77;;;;;;;6.75;57.66;102043.06;4949191;28;118360;-77
2022/02/01 01:11:03;;;;;;;7.50;1.73;;;;;;;6.76;57.87;102036.91;4965178;28;117873;-77
2022/02/01 01:16:34;;;;;;;10.07;1.95;;;;;;;6.77;57.59;102004.41;4966743;28;123612;-76
2022/02/01 01:43:44;;;;;;;9.52;1.60;;;;;;;6.82;57.98;102023.69;4965133;28;118727;-77
2022/02/01 01:46:29;;;;;;;7.20;1.35;;;;;;;6.83;57.89;102051.75;4964552;28;123043;-76
2022/02/01 01:54:28;;;;;;;7.57;1.52;;;;;;;6.86;57.82;102053.50;4985283;28;118413;-76
2022/02/01 01:56:57;;;;;;;12.05;1.83;;;;;;;6.87;57.95;102038.56;4967682;28;123784;-77
2022/02/01 01:59:25;;;;;;;11.65;1.98;;;;;;;6.89;58.09;102044.69;4975185;28;124340;-77
2022/02/01 02:01:53;;;;;;;5.90;1.20;;;;;;;6.89;58.19;102052.56;4988124;28;119024;-77
2022/02/01 02:04:20;;;;;;;7.72;1.65;;;;;;;6.91;58.20;102053.44;4987631;28;118683;-77
2022/02/01 02:06:48;;;;;;;8.90;1.20;;;;;;;6.91;57.74;102058.69;4987996;28;124102;-77
2022/02/01 02:09:15;;;;;;;15.60;1.60;;;;;;;6.91;57.93;102058.69;4989840;28;124162;-77
2022/02/01 02:12:06;;;;;;;8.25;1.33;;;;;;;6.94;58.31;102054.28;4987798;28;118885;-77
2022/02/01 02:14:33;;;;;;;8.35;1.40;;;;;;;6.95;58.16;102031.44;5007259;28;119063;-77
2022/02/01 02:17:02;;;;;;;14.85;2.05;;;;;;;6.96;57.97;102022.66;4972428;28;122483;-76
2022/02/01 02:19:31;;;;;;;5.22;1.38;;;;;;;6.96;58.00;102025.28;4988841;28;123095;-77
2022/02/01 02:22:05;;;;;;;7.78;1.45;;;;;;;6.99;58.03;102035.81;4990145;28;120139;-77
2022/02/01 02:24:42;;;;;;;9.82;1.65;;;;;;;7.01;58.31;102050.69;4989245;28;119025;-77
2022/02/01 02:27:09;;;;;;;4.80;1.25;;;;;;;7.04;58.19;102055.03;4985495;28;125183;-77
2022/02/01 02:29:36;;;;;;;9.35;1.38;;;;;;;7.05;58.01;102041.00;4985837;28;123421;-77
2022/02/01 02:32:05;;;;;;;8.05;1.52;;;;;;;7.06;57.90;102042.72;4978517;28;119096;-77
2022/02/01 02:34:32;;;;;;;8.57;1.60;;;;;;;7.07;58.23;102055.03;4988939;28;118996;-77
2022/02/01 02:37:04;;;;;;;6.95;2.15;;;;;;;7.07;58.04;102059.44;4970069;28;123308;-77
2022/02/01 02:42:12;;;;;;;7.47;1.60;;;;;;;7.07;58.07;102038.34;4987145;28;118774;-77
2022/02/01 02:47:27;;;;;;;7.63;1.40;;;;;;;7.05;58.19;102037.50;4986548;28;123684;-77
2022/02/01 02:49:55;;;;;;;5.53;1.45;;;;;;;7.04;58.02;102033.97;4970452;28;123282;-77
2022/02/01 02:52:26;;;;;;;5.80;1.10;;;;;;;7.05;58.35;102025.19;4988806;28;119689;-77
2022/02/01 02:54:57;;;;;;;8.77;1.65;;;;;;;7.06;58.18;102019.03;4987603;28;118899;-76
2022/02/01 02:57:25;;;;;;;9.00;1.70;;;;;;;7.05;58.07;102014.66;4970711;28;123487;-77
2022/02/01 02:59:52;;;;;;;5.28;1.75;;;;;;;7.06;58.16;102005.84;4987080;28;123816;-76
2022/02/01 03:02:19;;;;;;;8.70;1.80;;;;;;;7.07;57.88;102009.38;4987513;28;118970;-76
2022/02/01 03:04:47;;;;;;;8.48;1.33;;;;;;;7.08;57.92;102014.59;4988901;28;118850;-77
2022/02/01 03:07:14;;;;;;;7.03;1.52;;;;;;;7.07;57.84;102015.50;4970057;28;123800;-78
2022/02/01 03:09:44;;;;;;;6.60;1.48;;;;;;;7.09;58.01;102013.72;4987711;28;124172;-76
2022/02/01 03:12:18;;;;;;;7.30;1.38;;;;;;;7.09;57.96;102020.75;4986724;28;119521;-77
2022/02/01 03:19:58;;;;;;;8.48;1.67;;;;;;;7.12;57.65;102011.06;4986556;28;123717;-76
2022/02/01 03:22:26;;;;;;;8.85;1.20;;;;;;;7.13;58.17;101997.00;4986960;28;118530;-77
2022/02/01 03:24:55;;;;;;;7.28;1.20;;;;;;;7.14;58.11;101982.94;5003209;28;118404;-77
2022/02/01 03:27:23;;;;;;;6.38;1.15;;;;;;;7.17;58.13;101977.63;4988188;28;125682;-77
2022/02/01 03:29:50;;;;;;;6.72;1.50;;;;;;;7.19;58.26;101975.81;4986801;28;123317;-77
2022/02/01 03:32:22;;;;;;;8.90;1.35;;;;;;;7.20;57.88;101979.34;4988139;28;119037;-77
2022/02/01 03:34:51;;;;;;;6.65;1.70;;;;;;;7.22;57.94;101975.81;4986792;28;120385;-77
2022/02/01 03:37:18;;;;;;;6.88;1.05;;;;;;;7.24;57.93;101972.28;4985628;28;122668;-77
2022/02/01 03:39:45;;;;;;;7.95;1.40;;;;;;;7.26;58.26;101970.50;4986023;28;123974;-77
2022/02/01 03:42:12;;;;;;;7.13;1.55;;;;;;;7.27;58.23;101952.03;4986221;28;120442;-75
2022/02/01 03:44:40;;;;;;;6.28;1.30;;;;;;;7.29;58.04;101944.09;4986707;28;118349;-77
2022/02/01 03:47:08;;;;;;;6.78;1.30;;;;;;;7.30;58.18;101951.97;4986209;28;123109;-77
2022/02/01 03:49:38;;;;;;;4.88;1.00;;;;;;;7.31;57.93;101963.38;4969919;28;123563;-77
2022/02/01 03:52:07;;;;;;;6.57;1.25;;;;;;;7.31;58.00;101937.03;4986533;28;120387;-77
2022/02/01 03:54:35;;;;;;;9.70;1.27;;;;;;;7.33;58.04;101930.00;4985453;28;119158;-77
2022/02/01 03:57:05;;;;;;;6.75;1.10;;;;;;;7.34;58.13;101937.00;4970746;28;122030;-77
2022/02/01 03:59:33;;;;;;;7.68;1.30;;;;;;;7.35;58.00;101930.84;5003583;28;123485;-76
2022/02/01 04:02:01;;;;;;;9.10;1.30;;;;;;;7.37;58.12;101926.44;4985626;28;118329;-77
2022/02/01 04:04:31;;;;;;;6.72;1.33;;;;;;;7.38;58.11;101933.44;4987312;28;119726;-77
2022/02/01 04:06:58;;;;;;;5.90;1.52;;;;;;;7.40;58.11;101923.72;4969267;28;123136;-77
2022/02/01 04:09:26;;;;;;;8.38;1.38;;;;;;;7.42;58.10;101921.94;4969852;28;124937;-77
2022/02/01 04:11:56;;;;;;;7.15;1.10;;;;;;;7.44;57.90;101928.09;4985801;28;118950;-77
2022/02/01 04:14:27;;;;;;;3.13;1.38;;;;;;;7.45;57.80;101921.91;4986242;28;119035;-77
2022/02/01 04:16:57;;;;;;;4.38;1.10;;;;;;;7.45;57.96;101929.81;4969414;28;123240;-77
2022/02/01 04:19:28;;;;;;;8.50;1.52;;;;;;;7.46;58.16;101931.56;4989692;28;96697;-77
2022/02/01 04:22:02;;;;;;;5.90;1.33;;;;;;;7.47;58.01;101928.03;4985812;28;119351;-76
2022/02/01 04:24:31;;;;;;;6.82;1.10;;;;;;;7.47;58.01;101922.75;4985068;28;119399;-76
2022/02/01 04:26:59;;;;;;;6.57;1.05;;;;;;;7.47;58.11;101917.47;4985185;28;125041;-77
2022/02/01 04:29:27;;;;;;;6.80;1.13;;;;;;;7.45;58.25;101916.63;4985665;28;123540;-77
2022/02/01 04:31:54;;;;;;;7.00;1.00;;;;;;;7.47;58.21;101921.88;4985552;28;119250;-77
2022/02/01 04:34:22;;;;;;;2.70;0.95;;;;;;;7.48;58.32;101924.50;4985916;28;119027;-77
2022/02/01 04:36:49;;;;;;;5.20;1.35;;;;;;;7.47;57.92;101928.03;4986091;28;124059;-77
2022/02/01 04:39:17;;;;;;;7.80;1.48;;;;;;;7.47;58.04;101924.53;4969089;28;124044;-77
2022/02/01 04:41:45;;;;;;;5.28;1.30;;;;;;;7.47;58.35;101933.28;4969204;28;120481;-77
2022/02/01 04:44:12;;;;;;;7.82;1.58;;;;;;;7.48;58.00;101929.78;4986175;28;118070;-77
2022/02/01 04:46:39;;;;;;;5.78;1.48;;;;;;;7.46;58.54;101926.31;4985853;28;123549;-77
2022/02/01 04:49:10;;;;;;;6.75;1.35;;;;;;;7.48;58.38;101924.50;4969977;28;123102;-76
2022/02/01 04:51:37;;;;;;;3.72;0.95;;;;;;;7.50;58.01;101928.00;5002275;28;120530;-77
2022/02/01 04:54:06;;;;;;;6.28;1.30;;;;;;;7.50;58.09;101933.25;4986584;28;119467;-77
2022/02/01 04:56:33;;;;;;;8.50;1.25;;;;;;;7.50;58.17;101933.25;4985351;28;123340;-77
2022/02/01 04:59:01;;;;;;;6.32;1.40;;;;;;;7.51;58.18;101919.16;4985217;28;124119;-77
2022/02/01 05:01:37;;;;;;;9.45;1.60;;;;;;;7.53;58.13;101911.25;4985860;28;119150;-77
2022/02/01 05:04:06;;;;;;;11.13;2.25;;;;;;;7.53;58.35;101912.09;4986817;28;118498;-77
2022/02/01 05:06:34;;;;;;;9.35;1.70;;;;;;;7.54;58.12;101918.28;4985261;28;124055;-77
2022/02/01 05:09:02;;;;;;;11.38;2.10;;;;;;;7.53;58.24;101912.09;4985524;28;124233;-77
2022/02/01 05:11:29;;;;;;;9.02;2.00;;;;;;;7.55;58.10;101904.19;4968763;28;118638;-77
2022/02/01 05:16:41;;;;;;;6.90;1.55;;;;;;;7.56;58.19;101895.41;4984690;28;123787;-76
2022/02/01 05:19:17;;;;;;;4.57;1.80;;;;;;;7.57;58.38;101886.56;4984925;28;121873;-77
2022/02/01 05:21:45;;;;;;;7.90;1.80;;;;;;;7.57;57.88;101866.38;4985005;28;119753;-77
2022/02/01 05:24:13;;;;;;;9.88;1.92;;;;;;;7.58;58.09;101852.28;4989003;28;118542;-77
2022/02/01 05:26:42;;;;;;;7.18;1.67;;;;;;;7.59;58.31;101847.88;4988765;28;124136;-77
2022/02/01 05:29:09;;;;;;;10.82;2.00;;;;;;;7.59;57.91;101832.06;4989802;28;123924;-77
2022/02/01 05:31:37;;;;;;;9.15;2.00;;;;;;;7.58;58.06;101831.19;4988363;28;118198;-77
2022/02/01 05:34:04;;;;;;;6.30;2.28;;;;;;;7.57;58.30;101818.94;4972199;28;118749;-77
2022/02/01 05:36:31;;;;;;;6.65;1.90;;;;;;;7.57;57.99;101803.09;4972763;28;123424;-77
2022/02/01 05:38:59;;;;;;;11.13;2.10;;;;;;;7.58;58.02;101801.34;4988647;28;122747;-76
2022/02/01 05:41:27;;;;;;;8.93;2.40;;;;;;;7.59;58.18;101811.84;4988646;28;119068;-77
2022/02/01 05:43:54;;;;;;;9.10;2.22;;;;;;;7.57;58.18;101800.47;4973012;28;119269;-77
2022/02/01 05:46:22;;;;;;;6.60;1.90;;;;;;;7.58;58.18;101807.47;4990017;28;124832;-77
2022/02/01 05:48:50;;;;;;;6.50;1.77;;;;;;;7.58;57.86;101799.56;4988025;28;122398;-76
2022/02/01 05:51:17;;;;;;;9.35;2.15;;;;;;;7.58;58.07;101810.09;4987907;28;117817;-77
2022/02/01 05:53:44;;;;;;;11.07;2.03;;;;;;;7.57;58.21;101803.09;4988246;28;118392;-77
2022/02/01 05:56:12;;;;;;;9.98;2.65;;;;;;;7.57;58.01;101792.56;5005243;28;123815;-77
2022/02/01 05:58:40;;;;;;;7.68;2.30;;;;;;;7.57;58.47;101787.28;5005024;28;123505;-77
2022/02/01 06:01:07;;;;;;;8.48;2.60;;;;;;;7.58;58.15;101782.88;4971571;28;118620;-77
2022/02/01 06:03:34;;;;;;;8.10;2.33;;;;;;;7.59;58.25;101784.59;4987816;28;118186;-77
2022/02/01 06:06:03;;;;;;;9.75;2.45;;;;;;;7.60;58.28;101786.34;4987337;28;123360;-77
2022/02/01 06:08:30;;;;;;;10.68;2.50;;;;;;;7.63;58.59;101785.41;4987839;28;123099;-77
2022/02/01 06:10:57;;;;;;;9.52;2.30;;;;;;;7.65;58.53;101767.81;4990346;28;119715;-77
2022/02/01 06:13:25;;;;;;;12.07;3.08;;;;;;;7.67;58.24;101766.03;4989046;28;118978;-77
2022/02/01 06:15:52;;;;;;;8.70;2.75;;;;;;;7.68;58.52;101765.97;4987958;28;123822;-76
2022/02/01 06:18:19;;;;;;;8.32;2.63;;;;;;;7.71;58.51;101757.16;4988140;28;124600;-77
2022/02/01 06:20:47;;;;;;;11.68;2.53;;;;;;;7.73;58.44;101760.66;5004654;28;119953;-77
2022/02/01 06:23:16;;;;;;;11.68;2.88;;;;;;;7.74;58.73;101765.91;4988445;28;118795;-78
2022/02/01 06:25:51;;;;;;;11.05;3.10;;;;;;;7.77;58.36;101751.78;4971127;28;123215;-77
2022/02/01 06:28:23;;;;;;;14.73;2.97;;;;;;;7.79;58.54;101768.44;5004098;28;123476;-77
2022/02/01 06:30:51;;;;;;;8.55;3.33;;;;;;;7.80;58.37;101757.00;4987453;28;119621;-77
2022/02/01 06:33:19;;;;;;;11.60;3.03;;;;;;;7.81;58.58;101769.28;4987312;28;120239;-78
2022/02/01 06:35:46;;;;;;;9.35;2.75;;;;;;;7.83;58.48;101746.38;4987585;28;123133;-77
2022/02/01 06:38:14;;;;;;;10.45;3.40;;;;;;;7.85;58.89;101749.84;4989212;28;124039;-78
2022/02/01 06:40:42;;;;;;;9.95;3.20;;;;;;;7.87;58.52;101741.91;4971241;28;118005;-77
2022/02/01 06:43:11;;;;;;;15.48;3.40;;;;;;;7.89;58.60;101746.28;4989863;28;119108;-78
2022/02/01 06:45:40;;;;;;;11.98;3.40;;;;;;;7.91;58.89;101728.66;4987804;28;124269;-76
2022/02/01 06:48:07;;;;;;;9.18;3.25;;;;;;;7.94;58.48;101718.03;4971204;28;123177;-77
2022/02/01 06:50:34;;;;;;;12.38;3.50;;;;;;;7.97;58.69;101712.69;4970845;28;118922;-78
2022/02/01 06:53:03;;;;;;;12.95;3.95;;;;;;;7.99;58.85;101710.91;4988744;28;119176;-77
2022/02/01 06:58:04;;;;;;;10.32;3.47;;;;;;;8.05;58.78;101714.31;4987383;28;123610;-78
2022/02/01 07:00:32;;;;;;;14.52;3.78;;;;;;;8.07;59.05;101720.44;4971158;28;118298;-78
2022/02/01 07:02:59;;;;;;;13.00;3.90;;;;;;;8.09;59.14;101726.53;4987556;28;118372;-77
2022/02/01 07:05:27;;;;;;;10.32;3.60;;;;;;;8.12;58.94;101710.66;5003679;28;123968;-78
2022/02/01 07:07:54;;;;;;;11.32;3.85;;;;;;;8.14;58.78;101714.13;4986806;28;123608;-76
2022/02/01 07:10:21;;;;;;;11.82;3.92;;;;;;;8.17;58.87;101708.75;5003591;28;119262;-77
2022/02/01 07:12:48;;;;;;;14.00;4.15;;;;;;;8.19;59.29;101712.25;4987627;28;117850;-78
2022/02/01 07:15:15;;;;;;;13.38;3.88;;;;;;;8.20;58.92;101708.72;5003038;28;122095;-77
2022/02/01 07:17:47;;;;;;;12.77;4.00;;;;;;;8.24;59.04;101709.53;4970533;28;122814;-78
2022/02/01 07:20:15;;;;;;;13.13;4.45;;;;;;;8.26;59.00;101703.28;4987721;28;118885;-77
2022/02/01 07:22:44;;;;;;;11.43;3.75;;;;;;;8.27;58.89;101715.59;4987253;28;119272;-78
2022/02/01 07:25:22;;;;;;;12.45;4.25;;;;;;;8.28;59.04;101717.31;4970602;28;123458;-77
2022/02/01 07:27:51;;;;;;;9.80;4.35;;;;;;;8.31;59.22;101712.00;4986322;28;123543;-78
2022/02/01 07:30:23;;;;;;;13.07;4.78;;;;;;;8.33;59.18;101694.34;4986450;28;118418;-77
2022/02/01 07:32:52;;;;;;;12.23;4.82;;;;;;;8.35;59.41;101702.25;4986049;28;118666;-77
2022/02/01 07:35:21;;;;;;;15.52;5.25;;;;;;;8.37;59.30;101705.72;4985944;28;124434;-78
2022/02/01 07:37:49;;;;;;;13.32;4.60;;;;;;;8.37;58.98;101706.56;4985799;28;124437;-78
2022/02/01 07:40:17;;;;;;;15.63;5.05;;;;;;;8.39;59.02;101709.19;4986046;28;118675;-78
2022/02/01 07:42:44;;;;;;;14.93;5.32;;;;;;;8.39;58.89;101699.47;4985434;28;118207;-77
2022/02/01 07:45:14;;;;;;;13.48;5.47;;;;;;;8.42;59.45;101687.16;5002082;28;124294;-77
2022/02/01 07:47:41;;;;;;;14.05;6.07;;;;;;;8.43;59.17;101673.06;4986224;28;123142;-77
2022/02/01 07:50:08;;;;;;;13.45;5.63;;;;;;;8.43;59.54;101673.91;4986444;28;119422;-77
2022/02/01 07:52:36;;;;;;;16.35;6.40;;;;;;;8.45;59.49;101655.41;4986779;28;119722;-77
2022/02/01 07:55:04;;;;;;;12.68;6.18;;;;;;;8.48;59.77;101660.63;4985937;28;123342;-77
2022/02/01 07:57:32;;;;;;;14.57;6.05;;;;;;;8.48;59.29;101665.91;4969502;28;123330;-78
2022/02/01 07:59:59;;;;;;;18.00;6.43;;;;;;;8.49;59.66;101663.22;4969550;28;118377;-77
2022/02/01 08:02:27;;;;;;;17.60;6.47;;;;;;;8.49;59.30;101657.06;4987454;28;119559;-78
2022/02/01 08:05:14;;;;;;;21.65;7.05;;;;;;;8.49;59.41;101646.50;4972750;28;123296;-77
2022/02/01 08:07:41;;;;;;;19.27;6.90;;;;;;;8.50;59.59;101648.25;4985929;28;122806;-77
2022/02/01 08:10:12;;;;;;;17.58;7.18;;;;;;;8.50;59.43;101637.72;4987492;28;120423;-77
2022/02/01 08:20:58;;;;;;;16.98;7.68;;;;;;;8.49;59.77;101641.22;4987679;28;119147;-78
2022/02/01 08:23:25;;;;;;;16.50;7.35;;;;;;;8.48;59.99;101634.22;4988511;28;118085;-78
2022/02/01 08:25:54;;;;;;;20.48;6.88;;;;;;;8.48;60.11;101623.69;4996748;28;122045;-78
2022/02/01 08:28:22;;;;;;;16.95;7.75;;;;;;;8.48;60.15;101628.97;5011995;28;124417;-77
2022/02/01 08:30:51;;;;;;;16.17;7.53;;;;;;;8.51;59.95;101618.31;5005064;28;118449;-77
2022/02/01 08:33:18;;;;;;;15.73;7.60;;;;;;;8.50;60.30;101617.44;4992786;28;118842;-77
2022/02/01 08:35:46;;;;;;;18.10;7.43;;;;;;;8.53;60.24;101611.22;4969018;28;122738;-77
2022/02/01 08:38:18;;;;;;;18.15;7.53;;;;;;;8.55;60.23;101604.13;4985348;28;123899;-78
2022/02/01 08:40:47;;;;;;;15.77;7.40;;;;;;;8.55;60.14;101605.00;4985978;28;119606;-77
2022/02/01 08:43:16;;;;;;;13.15;7.30;;;;;;;8.56;60.21;101592.66;4969470;28;117987;-78
2022/02/01 08:45:44;;;;;;;15.05;7.10;;;;;;;8.58;60.68;101585.56;4968871;28;123041;-78
2022/02/01 08:48:12;;;;;;;12.65;6.80;;;;;;;8.59;60.10;101589.97;4969543;28;123328;-78
2022/02/01 08:50:39;;;;;;;15.65;7.38;;;;;;;8.60;60.64;101575.84;4985963;28;118907;-78
2022/02/01 08:53:31;;;;;;;14.30;7.22;;;;;;;8.61;60.71;101577.59;4987372;28;119472;-78
2022/02/01 08:58:24;;;;;;;12.23;6.57;;;;;;;8.64;60.54;101561.66;4990762;28;124728;-77
2022/02/01 09:00:53;;;;;;;15.90;6.97;;;;;;;8.64;60.42;101556.38;4992371;28;119407;-78
2022/02/01 09:03:21;;;;;;;14.20;6.93;;;;;;;8.66;60.91;101557.19;4994200;28;119741;-76
2022/02/01 09:05:49;;;;;;;12.35;6.43;;;;;;;8.67;60.91;101545.72;4991449;28;125887;-77
2022/02/01 09:08:17;;;;;;;11.95;6.18;;;;;;;8.66;60.83;101517.56;4972431;28;123551;-77
2022/02/01 09:10:44;;;;;;;11.80;6.43;;;;;;;8.66;60.70;101517.56;4990130;28;119540;-77
2022/02/01 09:13:11;;;;;;;11.07;6.50;;;;;;;8.67;60.71;101514.03;4975057;28;119046;-77
2022/02/01 09:15:38;;;;;;;10.93;6.25;;;;;;;8.67;60.70;101514.03;4989918;28;123956;-76
2022/02/01 09:18:05;;;;;;;11.82;6.57;;;;;;;8.70;60.84;101502.53;4990453;28;122674;-77
2022/02/01 09:20:33;;;;;;;11.38;6.32;;;;;;;8.71;61.05;101505.13;4973067;28;119996;-78
2022/02/01 09:23:01;;;;;;;11.82;6.18;;;;;;;8.73;60.72;101489.25;4990461;28;118224;-78
2022/02/01 09:25:28;;;;;;;8.93;5.85;;;;;;;8.72;60.85;101464.63;4989415;28;123487;-77
2022/02/01 09:27:56;;;;;;;11.80;6.20;;;;;;;8.73;60.69;101471.63;4989572;28;122629;-78
2022/02/01 09:30:23;;;;;;;11.13;6.53;;;;;;;8.75;61.01;101469.81;4991536;28;119763;-78
2022/02/01 09:32:51;;;;;;;11.80;6.55;;;;;;;8.77;61.19;101446.84;4990308;28;117082;-77
2022/02/01 09:35:19;;;;;;;11.85;6.40;;;;;;;8.80;61.61;101447.66;4990014;28;123703;-78
2022/02/01 09:37:46;;;;;;;11.27;6.60;;;;;;;8.82;61.21;101440.59;4989330;28;122734;-78
2022/02/01 09:40:33;;;;;;;11.40;6.30;;;;;;;8.84;61.17;101436.13;4989971;28;118358;-77
2022/02/01 09:43:00;;;;;;;12.18;6.57;;;;;;;8.85;61.38;101427.28;4991029;28;118649;-78
2022/02/01 09:45:29;;;;;;;10.93;6.63;;;;;;;8.87;61.53;101417.53;4990758;28;123448;-78
2022/02/01 09:48:06;;;;;;;12.80;7.25;;;;;;;8.88;61.43;101390.22;4989890;28;122211;-77
2022/02/01 09:50:34;;;;;;;12.95;6.80;;;;;;;8.91;61.32;101379.56;4989054;28;119394;-78
2022/02/01 09:53:02;;;;;;;11.10;6.78;;;;;;;8.94;61.23;101382.97;4973198;28;119580;-78
2022/02/01 09:55:30;;;;;;;10.10;6.35;;;;;;;8.96;61.44;101377.66;4989237;28;123156;-79
2022/02/01 09:57:57;;;;;;;10.55;6.50;;;;;;;8.99;61.31;101374.94;4988669;28;123162;-78
2022/02/01 10:00:44;;;;;;;10.88;6.72;;;;;;;9.00;61.56;101363.44;4990240;28;118354;-78
2022/02/01 10:03:16;;;;;;;10.98;6.72;;;;;;;9.02;61.50;101361.59;4989395;28;117257;-77
2022/02/01 10:05:44;;;;;;;9.68;6.38;;;;;;;9.03;61.35;101368.63;4987730;28;123484;-77
2022/02/01 10:08:13;;;;;;;11.25;6.25;;;;;;;9.06;61.71;101373.84;4988231;28;122480;-78
2022/02/01 10:10:40;;;;;;;9.02;6.05;;;;;;;9.09;61.62;101379.00;4988264;28;120847;-78
2022/02/01 10:13:16;;;;;;;10.15;6.28;;;;;;;9.12;61.55;101378.94;4988618;28;118771;-78
2022/02/01 10:16:02;;;;;;;10.23;6.35;;;;;;;9.12;61.42;101384.22;4988060;28;123560;-77
2022/02/01 10:18:35;;;;;;;12.55;6.45;;;;;;;9.14;61.83;101382.38;4988005;28;123119;-78
2022/02/01 10:21:14;;;;;;;9.65;6.13;;;;;;;9.14;61.68;101382.38;4987697;28;118535;-78
2022/02/01 10:23:43;;;;;;;10.80;6.50;;;;;;;9.18;61.65;101366.44;4988192;28;119537;-78
2022/02/01 10:26:18;;;;;;;10.95;6.43;;;;;;;9.21;62.02;101366.34;4988101;28;123962;-78
2022/02/01 10:31:33;;;;;;;10.20;6.05;;;;;;;9.25;61.78;101365.31;4989153;28;119334;-78
2022/02/01 10:34:28;;;;;;;10.30;6.18;;;;;;;9.26;61.63;101375.00;4997680;28;118777;-77
2022/02/01 10:37:01;;;;;;;11.23;6.32;;;;;;;9.28;62.00;101359.94;5005307;28;124523;-78
2022/02/01 10:39:33;;;;;;;9.50;5.95;;;;;;;9.30;61.80;101360.75;4977140;28;122416;-78
2022/02/01 10:42:08;;;;;;;9.45;5.82;;;;;;;9.34;62.00;101367.69;4989737;28;119518;-77
2022/02/01 10:44:55;;;;;;;9.85;6.13;;;;;;;9.35;61.92;101353.56;4991828;28;120162;-78
2022/02/01 10:47:36;;;;;;;9.82;5.88;;;;;;;9.37;61.88;101346.44;4991846;28;123112;-77
2022/02/01 10:50:07;;;;;;;10.00;5.90;;;;;;;9.39;62.03;101339.34;4996536;28;122872;-78
2022/02/01 10:52:37;;;;;;;9.77;6.07;;;;;;;9.42;62.23;101339.25;5000771;28;118208;-78
2022/02/01 10:55:06;;;;;;;10.85;6.32;;;;;;;9.45;62.01;101333.84;4991469;28;119415;-79
2022/02/01 10:57:34;;;;;;;10.30;6.10;;;;;;;9.48;61.84;101322.31;4988274;28;122234;-79
2022/02/01 11:00:03;;;;;;;10.45;6.60;;;;;;;9.50;62.21;101313.41;4972353;28;123939;-78
2022/02/01 11:02:31;;;;;;;9.38;5.90;;;;;;;9.55;62.08;101318.56;4988352;28;118968;-78
2022/02/01 11:04:59;;;;;;;10.05;6.18;;;;;;;9.58;62.13;101323.72;4972297;28;118093;-78
2022/02/01 11:07:28;;;;;;;9.75;6.20;;;;;;;9.62;62.10;101319.22;4970479;28;124232;-79
2022/02/01 11:09:55;;;;;;;9.82;6.68;;;;;;;9.64;61.93;101306.78;4987211;28;123141;-78
2022/02/01 11:12:32;;;;;;;11.30;6.50;;;;;;;9.67;62.41;101312.00;4989179;28;120017;-79
2022/02/01 11:15:00;;;;;;;11.60;6.47;;;;;;;9.71;62.31;101303.03;4987788;28;118290;-78
2022/02/01 11:17:38;;;;;;;10.05;6.38;;;;;;;9.76;62.27;101295.81;4987456;28;124005;-79
2022/02/01 11:20:06;;;;;;;11.32;6.55;;;;;;;9.81;62.31;101304.44;4986376;28;123202;-78
2022/02/01 11:22:45;;;;;;;10.90;7.10;;;;;;;9.85;62.52;101290.19;4987470;28;118808;-79
2022/02/01 11:25:21;;;;;;;12.25;6.80;;;;;;;9.89;62.67;101286.53;4970913;28;118595;-79
2022/02/01 11:30:42;;;;;;;10.45;6.05;;;;;;;9.99;62.48;101272.97;4986842;28;123023;-79
2022/02/01 11:33:12;;;;;;;12.85;6.50;;;;;;;10.03;62.70;101266.66;4986875;28;119916;-78
2022/02/01 11:35:40;;;;;;;10.48;6.43;;;;;;;10.07;62.61;101262.97;4987356;28;118819;-78
2022/02/01 11:38:23;;;;;;;9.00;5.60;;;;;;;10.12;62.44;101266.31;4986425;28;123637;-79
2022/02/01 11:41:06;;;;;;;11.75;5.43;;;;;;;10.16;62.71;101267.94;4987073;28;124123;-79
2022/02/01 11:43:40;;;;;;;9.23;4.80;;;;;;;10.23;63.20;101265.94;4986755;28;118802;-79
2022/02/01 11:46:10;;;;;;;8.95;4.65;;;;;;;10.27;62.79;101265.75;4987515;28;118314;-79
2022/02/01 11:48:39;;;;;;;7.15;4.68;;;;;;;10.33;62.94;101254.97;4986836;28;123105;-79
2022/02/01 11:51:09;;;;;;;8.00;4.38;;;;;;;10.39;62.74;101253.00;4986783;28;124231;-79
2022/02/01 11:53:42;;;;;;;7.80;4.10;;;;;;;10.44;63.21;101235.16;4970019;28;119678;-79
2022/02/01 11:56:13;;;;;;;5.63;3.60;;;;;;;10.50;63.10;101238.44;4985040;28;118804;-78
2022/02/01 11:58:49;;;;;;;5.88;3.60;;;;;;;10.55;63.36;101246.22;4988910;28;123174;-79
2022/02/01 12:01:31;;;;;;;4.70;3.20;;;;;;;10.61;62.99;101231.88;4996975;28;123344;-79
2022/02/01 12:04:02;;;;;;;5.40;3.15;;;;;;;10.66;62.81;101225.47;4988725;28;119171;-79
2022/02/01 12:06:43;;;;;;;4.43;2.97;;;;;;;10.73;63.28;101235.81;4989324;28;119257;-79
2022/02/01 12:09:19;;;;;;;4.85;2.70;;;;;;;10.78;62.83;101225.91;4988024;28;123097;-79
2022/02/01 12:11:53;;;;;;;3.45;2.40;;;;;;;10.84;63.12;101223.00;4986209;28;124275;-79
2022/02/01 12:14:20;;;;;;;3.95;2.40;;;;;;;10.89;63.22;101221.03;4985345;28;118266;-79
2022/02/01 12:16:49;;;;;;;3.60;2.40;;;;;;;10.94;63.30;101219.06;4987136;28;118424;-79
2022/02/01 12:19:24;;;;;;;3.05;2.28;;;;;;;10.97;62.94;101203.03;4986373;28;122411;-79
2022/02/01 12:22:19;;;;;;;3.75;2.25;;;;;;;11.00;63.22;101181.72;4986491;28;123835;-79
2022/02/01 12:24:48;;;;;;;3.67;2.28;;;;;;;11.04;63.21;101188.63;4989080;28;121104;-79
2022/02/01 12:27:15;;;;;;;4.03;2.33;;;;;;;11.09;63.17;101186.63;4988866;28;119183;-79
2022/02/01 12:29:42;;;;;;;3.75;2.30;;;;;;;11.10;63.09;101175.09;4989670;28;125304;-78
2022/02/01 12:32:10;;;;;;;3.88;2.30;;;;;;;11.14;63.08;101156.41;4973221;28;122455;-79
2022/02/01 12:34:37;;;;;;;6.13;2.42;;;;;;;11.17;63.24;101172.19;4989377;28;119906;-78
2022/02/01 12:37:05;;;;;;;5.28;2.67;;;;;;;11.19;63.19;101165.00;4988958;28;118622;-79
2022/02/01 12:39:33;;;;;;;5.75;2.58;;;;;;;11.22;63.15;101159.59;4988411;28;123967;-79
2022/02/01 12:42:43;;;;;;;5.00;2.90;;;;;;;11.27;63.18;101162.91;4972248;28;122876;-77
2022/02/01 12:47:43;;;;;;;6.05;3.20;;;;;;;11.33;63.06;101145.88;4985938;28;118808;-79
2022/02/01 12:50:13;;;;;;;10.10;3.50;;;;;;;11.36;63.21;101130.72;4985475;28;124517;-78
2022/02/01 12:52:41;;;;;;;9.00;3.60;;;;;;;11.40;63.46;101142.91;4987168;28;124256;-79
2022/02/01 12:55:14;;;;;;;8.93;3.67;;;;;;;11.43;63.17;101153.38;4985843;28;118023;-79
2022/02/01 12:58:04;;;;;;;11.35;3.90;;;;;;;11.48;63.40;101151.38;4985910;28;118924;-79
2022/02/01 13:00:33;;;;;;;8.63;4.07;;;;;;;11.52;63.42;101140.63;4985733;28;123707;-79
2022/02/01 13:03:03;;;;;;;9.38;3.70;;;;;;;11.54;63.35;101139.63;4985576;28;123384;-79
2022/02/01 13:05:31;;;;;;;9.40;3.65;;;;;;;11.57;63.21;101122.72;4986885;28;119332;-79